sensor_id;sensor_type;location;lat;lon;timestamp;temperature;humidity
5334;DHT22;2689;50.954;7.116;2023-12-28T00:02:00;10.40;93.20
5334;DHT22;2689;50.954;7.116;2023-12-28T00:04:27;10.40;93.50
5334;DHT22;2689;50.954;7.116;2023-12-28T00:06:56;10.50;93.30
5334;DHT22;2689;50.954;7.116;2023-12-28T00:09:23;10.40;93.30
5334;DHT22;2689;50.954;7.116;2023-12-28T00:11:50;10.40;93.50
5334;DHT22;2689;50.954;7.116;2023-12-28T00:14:17;10.50;94.00
5334;DHT22;2689;50.954;7.116;2023-12-28T00:16:43;10.50;94.40
5334;DHT22;2689;50.954;7.116;2023-12-28T00:19:10;10.50;94.60
5334;DHT22;2689;50.954;7.116;2023-12-28T00:21:37;10.50;95.40
5334;DHT22;2689;50.954;7.116;2023-12-28T00:24:05;10.40;95.70
5334;DHT22;2689;50.954;7.116;2023-12-28T00:26:32;10.50;96.20
5334;DHT22;2689;50.954;7.116;2023-12-28T00:28:59;10.50;96.60
5334;DHT22;2689;50.954;7.116;2023-12-28T00:31:25;10.40;97.10
5334;DHT22;2689;50.954;7.116;2023-12-28T00:33:52;10.40;98.20
5334;DHT22;2689;50.954;7.116;2023-12-28T00:36:19;10.40;99.30
5334;DHT22;2689;50.954;7.116;2023-12-28T00:38:46;10.40;99.90
5334;DHT22;2689;50.954;7.116;2023-12-28T00:41:14;10.50;99.90
5334;DHT22;2689;50.954;7.116;2023-12-28T00:43:41;10.60;99.90
5334;DHT22;2689;50.954;7.116;2023-12-28T00:46:07;10.40;99.90
5334;DHT22;2689;50.954;7.116;2023-12-28T00:48:34;10.40;99.90
5334;DHT22;2689;50.954;7.116;2023-12-28T00:51:01;10.40;99.90
5334;DHT22;2689;50.954;7.116;2023-12-28T00:53:27;10.30;99.90
5334;DHT22;2689;50.954;7.116;2023-12-28T00:55:54;10.40;99.90
5334;DHT22;2689;50.954;7.116;2023-12-28T00:58:22;10.40;99.90
5334;DHT22;2689;50.954;7.116;2023-12-28T01:00:49;10.40;99.90
5334;DHT22;2689;50.954;7.116;2023-12-28T01:03:18;10.40;99.90
5334;DHT22;2689;50.954;7.116;2023-12-28T01:05:45;10.50;99.90
5334;DHT22;2689;50.954;7.116;2023-12-28T01:08:16;10.50;99.90
5334;DHT22;2689;50.954;7.116;2023-12-28T01:10:42;10.40;99.90
5334;DHT22;2689;50.954;7.116;2023-12-28T01:13:09;10.40;99.90
5334;DHT22;2689;50.954;7.116;2023-12-28T01:15:37;10.40;99.90
5334;DHT22;2689;50.954;7.116;2023-12-28T01:18:04;10.40;99.90
5334;DHT22;2689;50.954;7.116;2023-12-28T01:20:31;10.40;99.90
5334;DHT22;2689;50.954;7.116;2023-12-28T01:22:58;10.50;99.90
5334;DHT22;2689;50.954;7.116;2023-12-28T01:25:25;10.50;99.90
5334;DHT22;2689;50.954;7.116;2023-12-28T01:27:51;10.50;99.90
5334;DHT22;2689;50.954;7.116;2023-12-28T01:30:18;10.60;99.90
5334;DHT22;2689;50.954;7.116;2023-12-28T01:32:46;10.60;99.90
5334;DHT22;2689;50.954;7.116;2023-12-28T01:35:13;10.50;99.90
5334;DHT22;2689;50.954;7.116;2023-12-28T01:37:40;10.50;99.90
5334;DHT22;2689;50.954;7.116;2023-12-28T01:40:08;10.50;99.90
5334;DHT22;2689;50.954;7.116;2023-12-28T01:42:34;10.50;99.90
5334;DHT22;2689;50.954;7.116;2023-12-28T01:45:01;10.40;99.90
5334;DHT22;2689;50.954;7.116;2023-12-28T01:47:29;10.50;99.90
5334;DHT22;2689;50.954;7.116;2023-12-28T01:49:58;10.50;99.90
5334;DHT22;2689;50.954;7.116;2023-12-28T01:52:26;10.50;99.90
5334;DHT22;2689;50.954;7.116;2023-12-28T01:54:54;10.50;99.90
5334;DHT22;2689;50.954;7.116;2023-12-28T01:57:21;10.50;99.90
5334;DHT22;2689;50.954;7.116;2023-12-28T01:59:48;10.50;99.90
5334;DHT22;2689;50.954;7.116;2023-12-28T02:02:16;10.40;99.90
5334;DHT22;2689;50.954;7.116;2023-12-28T02:04:43;10.50;99.90
5334;DHT22;2689;50.954;7.116;2023-12-28T02:07:13;10.50;99.90
5334;DHT22;2689;50.954;7.116;2023-12-28T02:09:40;10.50;99.90
5334;DHT22;2689;50.954;7.116;2023-12-28T02:12:07;10.50;99.90
5334;DHT22;2689;50.954;7.116;2023-12-28T02:14:34;10.40;99.90
5334;DHT22;2689;50.954;7.116;2023-12-28T02:17:04;10.40;99.90
5334;DHT22;2689;50.954;7.116;2023-12-28T02:19:45;10.40;99.90
5334;DHT22;2689;50.954;7.116;2023-12-28T02:22:14;10.40;99.90
5334;DHT22;2689;50.954;7.116;2023-12-28T02:25:13;10.40;99.90
5334;DHT22;2689;50.954;7.116;2023-12-28T02:27:41;10.40;99.90
5334;DHT22;2689;50.954;7.116;2023-12-28T02:30:09;10.40;99.90
5334;DHT22;2689;50.954;7.116;2023-12-28T02:32:43;10.40;99.90
5334;DHT22;2689;50.954;7.116;2023-12-28T02:35:17;10.40;99.90
5334;DHT22;2689;50.954;7.116;2023-12-28T02:37:49;10.50;99.90
5334;DHT22;2689;50.954;7.116;2023-12-28T02:40:18;10.50;99.90
5334;DHT22;2689;50.954;7.116;2023-12-28T02:42:45;10.50;99.90
5334;DHT22;2689;50.954;7.116;2023-12-28T02:45:12;10.50;99.90
5334;DHT22;2689;50.954;7.116;2023-12-28T02:47:39;10.50;99.90
5334;DHT22;2689;50.954;7.116;2023-12-28T02:50:07;10.50;99.90
5334;DHT22;2689;50.954;7.116;2023-12-28T02:52:34;10.50;99.90
5334;DHT22;2689;50.954;7.116;2023-12-28T02:55:00;10.50;99.90
5334;DHT22;2689;50.954;7.116;2023-12-28T02:57:29;10.50;99.90
5334;DHT22;2689;50.954;7.116;2023-12-28T02:59:55;10.50;99.90
5334;DHT22;2689;50.954;7.116;2023-12-28T03:02:27;10.50;99.90
5334;DHT22;2689;50.954;7.116;2023-12-28T03:04:53;10.50;99.90
5334;DHT22;2689;50.954;7.116;2023-12-28T03:07:20;10.50;99.90
5334;DHT22;2689;50.954;7.116;2023-12-28T03:09:47;10.50;99.90
5334;DHT22;2689;50.954;7.116;2023-12-28T03:12:14;10.40;99.90
5334;DHT22;2689;50.954;7.116;2023-12-28T03:14:43;10.40;99.90
5334;DHT22;2689;50.954;7.116;2023-12-28T03:17:10;10.40;99.90
5334;DHT22;2689;50.954;7.116;2023-12-28T03:19:37;10.40;99.90
5334;DHT22;2689;50.954;7.116;2023-12-28T03:22:04;10.40;99.90
5334;DHT22;2689;50.954;7.116;2023-12-28T03:24:30;10.40;99.90
5334;DHT22;2689;50.954;7.116;2023-12-28T03:26:57;10.40;99.90
5334;DHT22;2689;50.954;7.116;2023-12-28T03:29:24;10.30;99.90
5334;DHT22;2689;50.954;7.116;2023-12-28T03:31:52;10.30;99.90
5334;DHT22;2689;50.954;7.116;2023-12-28T03:34:19;10.30;99.90
5334;DHT22;2689;50.954;7.116;2023-12-28T03:36:47;10.20;99.90
5334;DHT22;2689;50.954;7.116;2023-12-28T03:39:14;10.20;99.90
5334;DHT22;2689;50.954;7.116;2023-12-28T03:41:40;10.20;99.90
5334;DHT22;2689;50.954;7.116;2023-12-28T03:44:07;10.20;99.90
5334;DHT22;2689;50.954;7.116;2023-12-28T03:46:34;10.10;99.90
5334;DHT22;2689;50.954;7.116;2023-12-28T03:49:02;10.00;99.90
5334;DHT22;2689;50.954;7.116;2023-12-28T03:51:29;10.00;99.90
5334;DHT22;2689;50.954;7.116;2023-12-28T03:53:56;9.90;99.90
5334;DHT22;2689;50.954;7.116;2023-12-28T03:56:24;9.90;99.90
5334;DHT22;2689;50.954;7.116;2023-12-28T03:58:51;9.80;99.90
5334;DHT22;2689;50.954;7.116;2023-12-28T04:01:19;9.80;99.90
5334;DHT22;2689;50.954;7.116;2023-12-28T04:03:46;9.70;99.90
5334;DHT22;2689;50.954;7.116;2023-12-28T04:06:15;9.70;99.90
5334;DHT22;2689;50.954;7.116;2023-12-28T04:08:42;9.60;99.90
5334;DHT22;2689;50.954;7.116;2023-12-28T04:11:09;9.50;99.90
5334;DHT22;2689;50.954;7.116;2023-12-28T04:13:36;9.50;99.90
5334;DHT22;2689;50.954;7.116;2023-12-28T04:16:05;9.50;99.90
5334;DHT22;2689;50.954;7.116;2023-12-28T04:18:32;9.40;99.90
5334;DHT22;2689;50.954;7.116;2023-12-28T04:20:59;9.40;99.90
5334;DHT22;2689;50.954;7.116;2023-12-28T04:23:27;9.40;99.90
5334;DHT22;2689;50.954;7.116;2023-12-28T04:25:54;9.40;99.90
5334;DHT22;2689;50.954;7.116;2023-12-28T04:28:20;9.40;99.90
5334;DHT22;2689;50.954;7.116;2023-12-28T04:30:47;9.40;99.90
5334;DHT22;2689;50.954;7.116;2023-12-28T04:33:17;9.30;99.90
5334;DHT22;2689;50.954;7.116;2023-12-28T04:35:44;9.40;99.90
5334;DHT22;2689;50.954;7.116;2023-12-28T04:38:11;9.30;99.90
5334;DHT22;2689;50.954;7.116;2023-12-28T04:40:39;9.30;99.90
5334;DHT22;2689;50.954;7.116;2023-12-28T04:43:06;9.30;99.90
5334;DHT22;2689;50.954;7.116;2023-12-28T04:45:33;9.30;99.90
5334;DHT22;2689;50.954;7.116;2023-12-28T04:47:59;9.30;99.90
5334;DHT22;2689;50.954;7.116;2023-12-28T04:50:26;9.30;99.90
5334;DHT22;2689;50.954;7.116;2023-12-28T04:52:53;9.30;99.90
5334;DHT22;2689;50.954;7.116;2023-12-28T04:55:20;9.30;99.90
5334;DHT22;2689;50.954;7.116;2023-12-28T04:57:48;9.40;99.90
5334;DHT22;2689;50.954;7.116;2023-12-28T05:00:15;9.40;99.90
5334;DHT22;2689;50.954;7.116;2023-12-28T05:02:42;9.40;99.90
5334;DHT22;2689;50.954;7.116;2023-12-28T05:05:11;9.40;99.90
5334;DHT22;2689;50.954;7.116;2023-12-28T05:07:38;9.40;99.90
5334;DHT22;2689;50.954;7.116;2023-12-28T05:10:05;9.40;99.90
5334;DHT22;2689;50.954;7.116;2023-12-28T05:12:33;9.40;99.90
5334;DHT22;2689;50.954;7.116;2023-12-28T05:15:01;9.40;99.90
5334;DHT22;2689;50.954;7.116;2023-12-28T05:17:28;9.50;99.90
5334;DHT22;2689;50.954;7.116;2023-12-28T05:19:55;9.50;99.90
5334;DHT22;2689;50.954;7.116;2023-12-28T05:22:22;9.50;99.90
5334;DHT22;2689;50.954;7.116;2023-12-28T05:24:49;9.50;99.90
5334;DHT22;2689;50.954;7.116;2023-12-28T05:27:15;9.50;99.90
5334;DHT22;2689;50.954;7.116;2023-12-28T05:29:42;9.50;99.90
5334;DHT22;2689;50.954;7.116;2023-12-28T05:32:10;9.50;99.90
5334;DHT22;2689;50.954;7.116;2023-12-28T05:34:37;9.50;99.90
5334;DHT22;2689;50.954;7.116;2023-12-28T05:37:04;9.50;99.90
5334;DHT22;2689;50.954;7.116;2023-12-28T05:39:31;9.40;99.90
5334;DHT22;2689;50.954;7.116;2023-12-28T05:41:57;9.40;99.90
5334;DHT22;2689;50.954;7.116;2023-12-28T05:44:24;9.40;99.90
5334;DHT22;2689;50.954;7.116;2023-12-28T05:46:51;9.40;99.90
5334;DHT22;2689;50.954;7.116;2023-12-28T05:49:19;9.30;99.90
5334;DHT22;2689;50.954;7.116;2023-12-28T05:51:46;9.30;99.90
5334;DHT22;2689;50.954;7.116;2023-12-28T05:54:13;9.30;99.90
5334;DHT22;2689;50.954;7.116;2023-12-28T05:56:40;9.30;99.90
5334;DHT22;2689;50.954;7.116;2023-12-28T05:59:06;9.20;99.90
5334;DHT22;2689;50.954;7.116;2023-12-28T06:01:41;9.20;99.90
5334;DHT22;2689;50.954;7.116;2023-12-28T06:04:08;9.20;99.90
5334;DHT22;2689;50.954;7.116;2023-12-28T06:06:36;9.20;99.90
5334;DHT22;2689;50.954;7.116;2023-12-28T06:09:03;9.20;99.90
5334;DHT22;2689;50.954;7.116;2023-12-28T06:11:30;9.20;99.90
5334;DHT22;2689;50.954;7.116;2023-12-28T06:13:57;9.20;99.90
5334;DHT22;2689;50.954;7.116;2023-12-28T06:16:23;9.10;99.90
5334;DHT22;2689;50.954;7.116;2023-12-28T06:18:51;9.20;99.90
5334;DHT22;2689;50.954;7.116;2023-12-28T06:21:17;9.10;99.90
5334;DHT22;2689;50.954;7.116;2023-12-28T06:23:45;9.10;99.90
5334;DHT22;2689;50.954;7.116;2023-12-28T06:26:12;9.20;99.90
5334;DHT22;2689;50.954;7.116;2023-12-28T06:28:39;9.20;99.90
5334;DHT22;2689;50.954;7.116;2023-12-28T06:31:06;9.10;99.90
5334;DHT22;2689;50.954;7.116;2023-12-28T06:33:33;9.20;99.90
5334;DHT22;2689;50.954;7.116;2023-12-28T06:36:05;9.10;99.90
5334;DHT22;2689;50.954;7.116;2023-12-28T06:38:31;9.10;99.90
5334;DHT22;2689;50.954;7.116;2023-12-28T06:41:00;9.20;99.90
5334;DHT22;2689;50.954;7.116;2023-12-28T06:43:26;9.20;99.90
5334;DHT22;2689;50.954;7.116;2023-12-28T06:45:54;9.10;99.90
5334;DHT22;2689;50.954;7.116;2023-12-28T06:48:20;9.10;99.90
5334;DHT22;2689;50.954;7.116;2023-12-28T06:50:47;9.10;99.90
5334;DHT22;2689;50.954;7.116;2023-12-28T06:53:14;9.10;99.90
5334;DHT22;2689;50.954;7.116;2023-12-28T06:55:41;9.10;99.90
5334;DHT22;2689;50.954;7.116;2023-12-28T06:58:09;9.10;99.90
5334;DHT22;2689;50.954;7.116;2023-12-28T07:00:35;9.10;99.90
5334;DHT22;2689;50.954;7.116;2023-12-28T07:03:02;9.10;99.90
5334;DHT22;2689;50.954;7.116;2023-12-28T07:05:29;9.10;99.90
5334;DHT22;2689;50.954;7.116;2023-12-28T07:07:56;9.20;99.90
5334;DHT22;2689;50.954;7.116;2023-12-28T07:10:23;9.20;99.90
5334;DHT22;2689;50.954;7.116;2023-12-28T07:12:50;9.20;99.90
5334;DHT22;2689;50.954;7.116;2023-12-28T07:15:18;9.20;99.90
5334;DHT22;2689;50.954;7.116;2023-12-28T07:17:45;9.30;99.90
5334;DHT22;2689;50.954;7.116;2023-12-28T07:20:12;9.30;99.90
5334;DHT22;2689;50.954;7.116;2023-12-28T07:22:38;9.30;99.90
5334;DHT22;2689;50.954;7.116;2023-12-28T07:25:06;9.40;99.90
5334;DHT22;2689;50.954;7.116;2023-12-28T07:27:33;9.40;99.90
5334;DHT22;2689;50.954;7.116;2023-12-28T07:30:02;9.50;99.90
5334;DHT22;2689;50.954;7.116;2023-12-28T07:32:30;9.50;99.90
5334;DHT22;2689;50.954;7.116;2023-12-28T07:34:57;9.50;99.90
5334;DHT22;2689;50.954;7.116;2023-12-28T07:37:24;9.40;99.90
5334;DHT22;2689;50.954;7.116;2023-12-28T07:39:51;9.40;99.90
5334;DHT22;2689;50.954;7.116;2023-12-28T07:42:18;9.40;99.90
5334;DHT22;2689;50.954;7.116;2023-12-28T07:44:45;9.50;99.90
5334;DHT22;2689;50.954;7.116;2023-12-28T07:47:12;9.40;99.90
5334;DHT22;2689;50.954;7.116;2023-12-28T07:49:41;9.40;99.90
5334;DHT22;2689;50.954;7.116;2023-12-28T07:52:08;9.40;99.90
5334;DHT22;2689;50.954;7.116;2023-12-28T07:54:35;9.40;99.90
5334;DHT22;2689;50.954;7.116;2023-12-28T07:57:01;9.40;99.90
5334;DHT22;2689;50.954;7.116;2023-12-28T07:59:28;9.30;99.90
5334;DHT22;2689;50.954;7.116;2023-12-28T08:01:55;9.40;99.90
5334;DHT22;2689;50.954;7.116;2023-12-28T08:04:22;9.30;99.90
5334;DHT22;2689;50.954;7.116;2023-12-28T08:06:50;9.40;99.90
5334;DHT22;2689;50.954;7.116;2023-12-28T08:09:17;9.30;99.90
5334;DHT22;2689;50.954;7.116;2023-12-28T08:11:44;9.40;99.90
5334;DHT22;2689;50.954;7.116;2023-12-28T08:14:11;9.30;99.90
5334;DHT22;2689;50.954;7.116;2023-12-28T08:16:38;9.30;99.90
5334;DHT22;2689;50.954;7.116;2023-12-28T08:19:04;9.30;99.90
5334;DHT22;2689;50.954;7.116;2023-12-28T08:21:31;9.40;99.90
5334;DHT22;2689;50.954;7.116;2023-12-28T08:23:59;9.40;99.90
5334;DHT22;2689;50.954;7.116;2023-12-28T08:27:03;9.40;99.90
5334;DHT22;2689;50.954;7.116;2023-12-28T08:29:43;9.40;99.90
5334;DHT22;2689;50.954;7.116;2023-12-28T08:32:11;9.50;99.90
5334;DHT22;2689;50.954;7.116;2023-12-28T08:34:37;9.50;99.90
5334;DHT22;2689;50.954;7.116;2023-12-28T08:37:04;9.60;99.90
5334;DHT22;2689;50.954;7.116;2023-12-28T08:39:32;9.60;99.90
5334;DHT22;2689;50.954;7.116;2023-12-28T08:42:00;9.60;99.90
5334;DHT22;2689;50.954;7.116;2023-12-28T08:44:26;9.60;99.90
5334;DHT22;2689;50.954;7.116;2023-12-28T08:46:53;9.70;99.90
5334;DHT22;2689;50.954;7.116;2023-12-28T08:49:20;9.70;99.90
5334;DHT22;2689;50.954;7.116;2023-12-28T08:51:47;9.70;99.90
5334;DHT22;2689;50.954;7.116;2023-12-28T08:54:14;9.80;99.90
5334;DHT22;2689;50.954;7.116;2023-12-28T08:56:42;9.80;99.90
5334;DHT22;2689;50.954;7.116;2023-12-28T08:59:09;9.80;99.90
5334;DHT22;2689;50.954;7.116;2023-12-28T09:01:36;9.90;99.90
5334;DHT22;2689;50.954;7.116;2023-12-28T09:04:03;10.00;99.90
5334;DHT22;2689;50.954;7.116;2023-12-28T09:06:30;10.00;99.90
5334;DHT22;2689;50.954;7.116;2023-12-28T09:08:57;10.10;99.90
5334;DHT22;2689;50.954;7.116;2023-12-28T09:11:24;10.10;99.90
5334;DHT22;2689;50.954;7.116;2023-12-28T09:13:52;10.20;99.90
5334;DHT22;2689;50.954;7.116;2023-12-28T09:16:20;10.30;99.90
5334;DHT22;2689;50.954;7.116;2023-12-28T09:18:46;10.40;99.90
5334;DHT22;2689;50.954;7.116;2023-12-28T09:21:13;10.50;99.90
5334;DHT22;2689;50.954;7.116;2023-12-28T09:23:40;10.70;99.90
5334;DHT22;2689;50.954;7.116;2023-12-28T09:26:07;10.70;99.90
5334;DHT22;2689;50.954;7.116;2023-12-28T09:28:34;10.80;99.90
5334;DHT22;2689;50.954;7.116;2023-12-28T09:31:03;10.80;99.90
5334;DHT22;2689;50.954;7.116;2023-12-28T09:33:30;10.80;99.90
5334;DHT22;2689;50.954;7.116;2023-12-28T09:35:57;10.90;99.90
5334;DHT22;2689;50.954;7.116;2023-12-28T09:38:25;11.00;99.90
5334;DHT22;2689;50.954;7.116;2023-12-28T09:40:53;11.10;99.90
5334;DHT22;2689;50.954;7.116;2023-12-28T09:43:23;11.20;99.90
5334;DHT22;2689;50.954;7.116;2023-12-28T09:45:50;11.30;99.90
5334;DHT22;2689;50.954;7.116;2023-12-28T09:48:20;11.30;99.90
5334;DHT22;2689;50.954;7.116;2023-12-28T09:50:49;11.50;99.90
5334;DHT22;2689;50.954;7.116;2023-12-28T09:53:20;11.50;99.90
5334;DHT22;2689;50.954;7.116;2023-12-28T09:55:48;11.70;99.90
5334;DHT22;2689;50.954;7.116;2023-12-28T09:58:18;11.90;99.10
5334;DHT22;2689;50.954;7.116;2023-12-28T10:00:46;11.90;99.00
5334;DHT22;2689;50.954;7.116;2023-12-28T10:03:13;12.00;98.90
5334;DHT22;2689;50.954;7.116;2023-12-28T10:05:42;12.10;98.50
5334;DHT22;2689;50.954;7.116;2023-12-28T10:08:11;12.30;97.60
5334;DHT22;2689;50.954;7.116;2023-12-28T10:10:38;12.10;97.80
5334;DHT22;2689;50.954;7.116;2023-12-28T10:13:06;12.20;97.70
5334;DHT22;2689;50.954;7.116;2023-12-28T10:15:33;12.40;97.30
5334;DHT22;2689;50.954;7.116;2023-12-28T10:18:00;12.40;97.00
5334;DHT22;2689;50.954;7.116;2023-12-28T10:20:27;12.40;96.80
5334;DHT22;2689;50.954;7.116;2023-12-28T10:22:55;12.60;96.70
5334;DHT22;2689;50.954;7.116;2023-12-28T10:25:23;12.90;96.50
5334;DHT22;2689;50.954;7.116;2023-12-28T10:27:51;12.80;95.80
5334;DHT22;2689;50.954;7.116;2023-12-28T10:30:19;12.80;95.50
5334;DHT22;2689;50.954;7.116;2023-12-28T10:32:47;12.80;95.60
5334;DHT22;2689;50.954;7.116;2023-12-28T10:35:14;12.90;95.40
5334;DHT22;2689;50.954;7.116;2023-12-28T10:37:43;12.80;95.40
5334;DHT22;2689;50.954;7.116;2023-12-28T10:40:13;12.80;95.70
5334;DHT22;2689;50.954;7.116;2023-12-28T10:42:49;12.90;95.30
5334;DHT22;2689;50.954;7.116;2023-12-28T10:45:16;13.00;94.70
5334;DHT22;2689;50.954;7.116;2023-12-28T10:47:54;13.00;94.80
5334;DHT22;2689;50.954;7.116;2023-12-28T10:50:23;13.00;94.50
5334;DHT22;2689;50.954;7.116;2023-12-28T10:52:56;13.00;94.20
5334;DHT22;2689;50.954;7.116;2023-12-28T10:55:32;13.00;94.30
5334;DHT22;2689;50.954;7.116;2023-12-28T10:58:10;13.00;93.90
5334;DHT22;2689;50.954;7.116;2023-12-28T11:00:43;12.70;93.70
5334;DHT22;2689;50.954;7.116;2023-12-28T11:03:11;12.80;94.00
5334;DHT22;2689;50.954;7.116;2023-12-28T11:05:45;12.90;93.80
5334;DHT22;2689;50.954;7.116;2023-12-28T11:08:22;13.00;93.80
5334;DHT22;2689;50.954;7.116;2023-12-28T11:10:51;13.10;93.70
5334;DHT22;2689;50.954;7.116;2023-12-28T11:13:20;13.20;93.30
5334;DHT22;2689;50.954;7.116;2023-12-28T11:15:48;13.30;93.20
5334;DHT22;2689;50.954;7.116;2023-12-28T11:18:17;13.30;92.80
5334;DHT22;2689;50.954;7.116;2023-12-28T11:20:46;13.50;92.50
5334;DHT22;2689;50.954;7.116;2023-12-28T11:23:15;13.50;92.30
5334;DHT22;2689;50.954;7.116;2023-12-28T11:25:43;13.60;92.00
5334;DHT22;2689;50.954;7.116;2023-12-28T11:28:13;13.60;92.10
5334;DHT22;2689;50.954;7.116;2023-12-28T11:30:41;13.80;91.80
5334;DHT22;2689;50.954;7.116;2023-12-28T11:33:10;13.90;91.40
5334;DHT22;2689;50.954;7.116;2023-12-28T11:35:38;14.10;90.90
5334;DHT22;2689;50.954;7.116;2023-12-28T11:38:08;14.20;90.90
5334;DHT22;2689;50.954;7.116;2023-12-28T11:40:40;14.10;90.80
5334;DHT22;2689;50.954;7.116;2023-12-28T11:43:18;14.20;90.60
5334;DHT22;2689;50.954;7.116;2023-12-28T11:45:49;14.20;90.00
5334;DHT22;2689;50.954;7.116;2023-12-28T11:48:24;14.30;90.10
5334;DHT22;2689;50.954;7.116;2023-12-28T11:50:54;14.20;90.30
5334;DHT22;2689;50.954;7.116;2023-12-28T11:53:22;14.10;89.30
5334;DHT22;2689;50.954;7.116;2023-12-28T11:55:49;14.20;89.20
5334;DHT22;2689;50.954;7.116;2023-12-28T11:58:18;14.20;89.60
5334;DHT22;2689;50.954;7.116;2023-12-28T12:00:45;14.30;89.70
5334;DHT22;2689;50.954;7.116;2023-12-28T12:03:12;14.10;89.20
5334;DHT22;2689;50.954;7.116;2023-12-28T12:05:39;14.00;89.20
5334;DHT22;2689;50.954;7.116;2023-12-28T12:08:06;14.00;89.20
5334;DHT22;2689;50.954;7.116;2023-12-28T12:10:36;13.90;89.30
5334;DHT22;2689;50.954;7.116;2023-12-28T12:13:03;13.90;89.20
5334;DHT22;2689;50.954;7.116;2023-12-28T12:15:31;14.00;89.80
5334;DHT22;2689;50.954;7.116;2023-12-28T12:17:58;14.10;89.50
5334;DHT22;2689;50.954;7.116;2023-12-28T12:20:26;14.10;89.70
5334;DHT22;2689;50.954;7.116;2023-12-28T12:22:58;14.10;89.50
5334;DHT22;2689;50.954;7.116;2023-12-28T12:25:25;14.20;89.10
5334;DHT22;2689;50.954;7.116;2023-12-28T12:27:52;14.30;88.70
5334;DHT22;2689;50.954;7.116;2023-12-28T12:30:19;14.20;88.60
5334;DHT22;2689;50.954;7.116;2023-12-28T12:32:48;14.20;88.00
5334;DHT22;2689;50.954;7.116;2023-12-28T12:35:15;14.10;88.70
5334;DHT22;2689;50.954;7.116;2023-12-28T12:37:43;14.20;88.90
5334;DHT22;2689;50.954;7.116;2023-12-28T12:40:12;14.10;87.80
5334;DHT22;2689;50.954;7.116;2023-12-28T12:42:39;14.10;87.90
5334;DHT22;2689;50.954;7.116;2023-12-28T12:45:08;14.00;87.90
5334;DHT22;2689;50.954;7.116;2023-12-28T12:47:35;13.90;88.00
5334;DHT22;2689;50.954;7.116;2023-12-28T12:50:03;13.90;88.40
5334;DHT22;2689;50.954;7.116;2023-12-28T12:52:31;13.80;88.30
5334;DHT22;2689;50.954;7.116;2023-12-28T12:54:58;13.80;88.60
5334;DHT22;2689;50.954;7.116;2023-12-28T12:57:24;13.70;88.10
5334;DHT22;2689;50.954;7.116;2023-12-28T12:59:52;13.70;88.40
5334;DHT22;2689;50.954;7.116;2023-12-28T13:02:19;13.60;88.10
5334;DHT22;2689;50.954;7.116;2023-12-28T13:04:45;13.50;88.20
5334;DHT22;2689;50.954;7.116;2023-12-28T13:07:13;13.50;89.00
5334;DHT22;2689;50.954;7.116;2023-12-28T13:09:41;13.50;88.60
5334;DHT22;2689;50.954;7.116;2023-12-28T13:12:08;13.40;88.30
5334;DHT22;2689;50.954;7.116;2023-12-28T13:14:35;13.40;89.00
5334;DHT22;2689;50.954;7.116;2023-12-28T13:17:01;13.50;89.20
5334;DHT22;2689;50.954;7.116;2023-12-28T13:19:28;13.30;89.70
5334;DHT22;2689;50.954;7.116;2023-12-28T13:21:55;13.40;89.70
5334;DHT22;2689;50.954;7.116;2023-12-28T13:24:23;13.40;89.60
5334;DHT22;2689;50.954;7.116;2023-12-28T13:26:50;13.30;89.60
5334;DHT22;2689;50.954;7.116;2023-12-28T13:29:17;13.30;89.90
5334;DHT22;2689;50.954;7.116;2023-12-28T13:31:43;13.50;90.10
5334;DHT22;2689;50.954;7.116;2023-12-28T13:34:15;13.50;89.70
5334;DHT22;2689;50.954;7.116;2023-12-28T13:36:42;13.40;89.10
5334;DHT22;2689;50.954;7.116;2023-12-28T13:39:09;13.50;89.30
5334;DHT22;2689;50.954;7.116;2023-12-28T13:41:38;13.30;89.40
5334;DHT22;2689;50.954;7.116;2023-12-28T13:44:05;13.20;89.10
5334;DHT22;2689;50.954;7.116;2023-12-28T13:46:36;13.20;89.70
5334;DHT22;2689;50.954;7.116;2023-12-28T13:49:03;13.20;89.50
5334;DHT22;2689;50.954;7.116;2023-12-28T13:51:30;13.00;89.80
5334;DHT22;2689;50.954;7.116;2023-12-28T13:53:57;12.90;90.00
5334;DHT22;2689;50.954;7.116;2023-12-28T13:56:23;12.90;90.30
5334;DHT22;2689;50.954;7.116;2023-12-28T13:58:52;12.90;90.20
5334;DHT22;2689;50.954;7.116;2023-12-28T14:01:18;12.90;90.20
5334;DHT22;2689;50.954;7.116;2023-12-28T14:03:45;12.80;90.20
5334;DHT22;2689;50.954;7.116;2023-12-28T14:06:14;12.80;90.40
5334;DHT22;2689;50.954;7.116;2023-12-28T14:08:41;12.60;90.50
5334;DHT22;2689;50.954;7.116;2023-12-28T14:11:07;12.60;90.70
5334;DHT22;2689;50.954;7.116;2023-12-28T14:13:35;12.50;90.80
5334;DHT22;2689;50.954;7.116;2023-12-28T14:16:04;12.40;90.80
5334;DHT22;2689;50.954;7.116;2023-12-28T14:18:31;12.50;90.80
5334;DHT22;2689;50.954;7.116;2023-12-28T14:20:58;12.40;91.10
5334;DHT22;2689;50.954;7.116;2023-12-28T14:23:25;12.30;90.90
5334;DHT22;2689;50.954;7.116;2023-12-28T14:25:52;12.40;91.00
5334;DHT22;2689;50.954;7.116;2023-12-28T14:28:20;12.30;91.00
5334;DHT22;2689;50.954;7.116;2023-12-28T14:30:49;12.30;91.20
5334;DHT22;2689;50.954;7.116;2023-12-28T14:33:18;12.30;91.30
5334;DHT22;2689;50.954;7.116;2023-12-28T14:35:45;12.20;91.30
5334;DHT22;2689;50.954;7.116;2023-12-28T14:38:13;12.20;91.30
5334;DHT22;2689;50.954;7.116;2023-12-28T14:40:40;12.20;91.50
5334;DHT22;2689;50.954;7.116;2023-12-28T14:43:07;12.30;91.40
5334;DHT22;2689;50.954;7.116;2023-12-28T14:45:33;12.30;91.30
5334;DHT22;2689;50.954;7.116;2023-12-28T14:48:01;12.10;91.40
5334;DHT22;2689;50.954;7.116;2023-12-28T14:50:29;12.10;91.60
5334;DHT22;2689;50.954;7.116;2023-12-28T14:52:56;12.10;91.50
5334;DHT22;2689;50.954;7.116;2023-12-28T14:55:22;12.00;91.50
5334;DHT22;2689;50.954;7.116;2023-12-28T14:57:50;12.00;91.80
5334;DHT22;2689;50.954;7.116;2023-12-28T15:00:17;12.00;91.70
5334;DHT22;2689;50.954;7.116;2023-12-28T15:02:44;12.00;91.70
5334;DHT22;2689;50.954;7.116;2023-12-28T15:05:11;11.90;91.80
5334;DHT22;2689;50.954;7.116;2023-12-28T15:07:40;11.90;92.00
5334;DHT22;2689;50.954;7.116;2023-12-28T15:10:08;11.80;91.90
5334;DHT22;2689;50.954;7.116;2023-12-28T15:12:35;11.90;91.80
5334;DHT22;2689;50.954;7.116;2023-12-28T15:15:03;11.80;91.90
5334;DHT22;2689;50.954;7.116;2023-12-28T15:17:30;11.70;92.00
5334;DHT22;2689;50.954;7.116;2023-12-28T15:19:58;11.70;92.20
5334;DHT22;2689;50.954;7.116;2023-12-28T15:22:25;11.70;92.20
5334;DHT22;2689;50.954;7.116;2023-12-28T15:24:54;11.70;92.30
5334;DHT22;2689;50.954;7.116;2023-12-28T15:27:22;11.70;92.40
5334;DHT22;2689;50.954;7.116;2023-12-28T15:29:49;11.60;92.50
5334;DHT22;2689;50.954;7.116;2023-12-28T15:32:15;11.60;92.50
5334;DHT22;2689;50.954;7.116;2023-12-28T15:34:42;11.60;92.80
5334;DHT22;2689;50.954;7.116;2023-12-28T15:37:09;11.50;93.00
5334;DHT22;2689;50.954;7.116;2023-12-28T15:39:35;11.40;93.10
5334;DHT22;2689;50.954;7.116;2023-12-28T15:42:04;11.40;93.30
5334;DHT22;2689;50.954;7.116;2023-12-28T15:44:31;11.40;93.50
5334;DHT22;2689;50.954;7.116;2023-12-28T15:46:57;11.40;93.60
5334;DHT22;2689;50.954;7.116;2023-12-28T15:49:24;11.30;93.80
5334;DHT22;2689;50.954;7.116;2023-12-28T15:51:51;11.30;93.90
5334;DHT22;2689;50.954;7.116;2023-12-28T15:54:18;11.20;94.00
5334;DHT22;2689;50.954;7.116;2023-12-28T15:56:44;11.30;94.10
5334;DHT22;2689;50.954;7.116;2023-12-28T15:59:13;11.20;94.30
5334;DHT22;2689;50.954;7.116;2023-12-28T16:01:39;11.20;94.50
5334;DHT22;2689;50.954;7.116;2023-12-28T16:04:06;11.20;94.60
5334;DHT22;2689;50.954;7.116;2023-12-28T16:06:33;11.20;94.90
5334;DHT22;2689;50.954;7.116;2023-12-28T16:08:59;11.20;95.00
5334;DHT22;2689;50.954;7.116;2023-12-28T16:11:30;11.20;95.10